»·PEaware :: PH-TIM KIZA-KCMA

PH-TIM :: KIZA-KCMA

FLIGHT INFORMATION

Flight Status: Arrived
Operator: Privately registered:
Netherlands
More flights under this callsign
Pilot: Tim P. (6337)
Aircraft: CESSNA 172 SKYHAWK
(C172)
More flights by this aircraft type
Origin: KIZA Santa Ynez
United States
Destination: KCMA Camarillo
United States
More flights between these airports :: More routes between these airports
Route: +RZS CMA
File this flight plan on PilotEdge
Remarks: SBAP70
Altitude:
(Current/Filed)
7,000ft
Speed:
(Current/Filed)
105kts
Departed: 05-Aug-18 09:38 AM
Arrived: 05-Aug-18 10:32 AM
Distance/Time
Traveled:
55nm/0:54
Distance/Time
To Go:
Arrived

Flight Plot

Page will automatically refresh every two minutes.

Flight plan parsing failed; only flown route is shown


Map Options




Map Legend


Flown Route
Filed Route
Departure Airport
Arrival Airport
Navaid (VOR, NDB)
Fix

Horizontal Profiles

Position Reports

Time Latitude Longitude Heading Altitude Ground
Speed
05-Aug-18 09:14 34.608022 -120.074428 188 662ft 0kts
05-Aug-18 09:15 34.608022 -120.074428 188 662ft 0kts
05-Aug-18 09:16 34.608022 -120.074428 188 662ft 0kts
05-Aug-18 09:17 34.608022 -120.074428 188 662ft 0kts
05-Aug-18 09:18 34.608022 -120.074428 188 662ft 0kts
05-Aug-18 09:19 34.608021 -120.074428 188 662ft 0kts
05-Aug-18 09:20 34.608022 -120.074428 188 662ft 0kts
05-Aug-18 09:21 34.608022 -120.074428 188 662ft 0kts
05-Aug-18 09:22 34.608022 -120.074428 188 662ft 0kts
05-Aug-18 09:23 34.608022 -120.074428 188 662ft 0kts
05-Aug-18 09:24 34.608022 -120.074428 188 662ft 0kts
05-Aug-18 09:25 34.608022 -120.074428 188 662ft 0kts
05-Aug-18 09:26 34.608022 -120.074428 188 662ft 0kts
05-Aug-18 09:27 34.608022 -120.074428 188 662ft 0kts
05-Aug-18 09:28 34.608022 -120.074428 188 662ft 0kts
05-Aug-18 09:29 34.608022 -120.074428 188 662ft 0kts
05-Aug-18 09:30 34.608022 -120.074428 188 662ft 0kts
05-Aug-18 09:31 34.608022 -120.074428 188 662ft 0kts
05-Aug-18 09:32 34.607070 -120.074074 119 665ft 6kts
05-Aug-18 09:33 34.606766 -120.070858 117 669ft 5kts
05-Aug-18 09:34 34.606735 -120.070826 161 669ft 0kts
05-Aug-18 09:35 34.606735 -120.070826 161 669ft 0kts
05-Aug-18 09:36 34.606734 -120.070826 160 669ft 0kts
05-Aug-18 09:37 34.606651 -120.070828 206 670ft 0kts
05-Aug-18 09:38 34.606298 -120.071314 277 670ft 17kts
05-Aug-18 09:39 34.608170 -120.092486 272 984ft 70kts
05-Aug-18 09:40 34.615510 -120.110178 359 1451ft 81kts
05-Aug-18 09:41 34.621925 -120.084198 99 2171ft 79kts
05-Aug-18 09:42 34.616103 -120.058188 116 2737ft 81kts
05-Aug-18 09:43 34.606039 -120.038910 124 3176ft 82kts
05-Aug-18 09:44 34.593767 -120.015465 122 3657ft 84kts
05-Aug-18 09:45 34.579588 -119.987096 120 4165ft 84kts
05-Aug-18 09:46 34.571654 -119.965381 112 4519ft 84kts
05-Aug-18 09:47 34.563352 -119.938822 104 4922ft 84kts
05-Aug-18 09:48 34.553296 -119.908074 107 5393ft 84kts
05-Aug-18 09:49 34.546085 -119.886120 105 5708ft 83kts
05-Aug-18 09:50 34.537546 -119.860102 108 6105ft 81kts
05-Aug-18 09:51 34.530624 -119.833845 120 6438ft 82kts
05-Aug-18 09:52 34.521830 -119.807876 115 6780ft 85kts
05-Aug-18 09:53 34.511264 -119.780580 123 6974ft 98kts
05-Aug-18 09:54 34.499172 -119.747780 115 7010ft 109kts
05-Aug-18 09:55 34.485079 -119.715389 128 6923ft 107kts
05-Aug-18 09:56 34.469082 -119.684858 125 6875ft 107kts
05-Aug-18 09:57 34.456108 -119.652231 123 6833ft 107kts
05-Aug-18 09:58 34.442547 -119.621433 124 6898ft 102kts
05-Aug-18 09:59 34.429682 -119.590172 122 6998ft 105kts
05-Aug-18 10:00 34.416342 -119.558556 122 7083ft 107kts
05-Aug-18 10:01 34.402071 -119.526523 126 7118ft 112kts
05-Aug-18 10:02 34.385717 -119.492614 122 7070ft 118kts
05-Aug-18 10:03 34.370112 -119.457005 122 7047ft 120kts
05-Aug-18 10:04 34.354762 -119.420662 121 7033ft 121kts
05-Aug-18 10:05 34.338544 -119.385031 123 7023ft 122kts
05-Aug-18 10:06 34.319822 -119.351407 129 6476ft 124kts
05-Aug-18 10:07 34.307410 -119.319755 96 5593ft 119kts
05-Aug-18 10:08 34.303375 -119.277145 97 4522ft 136kts
05-Aug-18 10:09 34.298465 -119.235982 96 3710ft 115kts
05-Aug-18 10:10 34.294935 -119.200281 95 3972ft 100kts
05-Aug-18 10:11 34.290548 -119.163754 96 3980ft 111kts
05-Aug-18 10:12 34.286079 -119.126932 96 4008ft 110kts
05-Aug-18 10:13 34.281929 -119.090247 95 4031ft 109kts
05-Aug-18 10:14 34.279969 -119.052878 95 4042ft 111kts
05-Aug-18 10:15 34.278287 -119.015602 92 4076ft 111kts
05-Aug-18 10:16 34.277410 -118.978204 96 4109ft 111kts
05-Aug-18 10:17 34.275170 -118.940995 96 4130ft 112kts
05-Aug-18 10:18 34.273228 -118.901454 94 4032ft 119kts
05-Aug-18 10:19 34.272315 -118.861337 92 4014ft 119kts
05-Aug-18 10:20 34.270670 -118.821336 95 3990ft 118kts
05-Aug-18 10:21 34.267985 -118.781464 95 3964ft 119kts
05-Aug-18 10:22 34.244471 -118.769885 192 4003ft 106kts
05-Aug-18 10:23 34.213614 -118.772016 215 3662ft 122kts
05-Aug-18 10:24 34.210027 -118.808972 278 3417ft 111kts
05-Aug-18 10:25 34.211516 -118.845919 273 3289ft 107kts
05-Aug-18 10:26 34.211844 -118.880905 271 3372ft 108kts
05-Aug-18 10:27 34.212432 -118.916626 269 2862ft 109kts
05-Aug-18 10:28 34.213144 -118.953913 269 2275ft 114kts
05-Aug-18 10:29 34.213213 -118.989643 270 1633ft 99kts
05-Aug-18 10:30 34.213425 -119.020101 270 1164ft 81kts
05-Aug-18 10:31 34.213330 -119.048211 270 701ft 81kts
05-Aug-18 10:32 34.213561 -119.070206 269 346ft 58kts
05-Aug-18 10:33 34.213714 -119.087446 270 81ft 31kts
05-Aug-18 10:34 34.212894 -119.090836 197 81ft 0kts
05-Aug-18 10:35 34.211917 -119.090361 136 81ft 9kts
05-Aug-18 10:36 34.210959 -119.087017 89 81ft 13kts
05-Aug-18 10:37 34.210920 -119.082698 91 81ft 13kts
05-Aug-18 10:38 34.210783 -119.078690 168 81ft 7kts
05-Aug-18 10:39 34.210217 -119.078414 92 81ft 0kts
05-Aug-18 10:40 34.210217 -119.078414 92 81ft 0kts
05-Aug-18 10:41 34.210217 -119.078414 92 81ft 0kts
05-Aug-18 10:42 34.210217 -119.078414 92 81ft 0kts
05-Aug-18 10:43 34.210217 -119.078414 92 81ft 0kts
05-Aug-18 10:44 34.210217 -119.078414 92 81ft 0kts
05-Aug-18 10:45 34.210217 -119.078414 92 81ft 0kts
05-Aug-18 10:46 34.210217 -119.078414 92 81ft 0kts
05-Aug-18 10:47 34.210217 -119.078414 92 81ft 0kts

Navigation Log

Ident Type
Flight plan parsing failed, navigation log unavailable